• Join FlightAware (Why Join?)
  • Login
  • US Flag 
02:05AM EDT


 

Airport Tracker/Info


-or-


 

Live Flight TrackerFlight Track Log ✈ SLI2121 ✈ 04-Sep-2013 ✈ MMCL / CUL - MMGL / GDL

Flight Track Log - Related Links

Times and Time Zones

All times are in EDT time to prevent confusion due to time zone crossing. See the SLI2121 flight status page for this flight to view local times or setup timezone preferences in your user account.

Time Position Orientation Groundspeed Altitude Reporting Facility
EDT Latitude Longitude Course Direction KTS MPH feet Rate Location/Type
03:01PM 24.4420 -107.1449 137° Southeast  Level Estimated
03:02PM 24.3613 -107.0627 137° Southeast  Level Estimated
03:03PM 24.2805 -106.9806 137° Southeast  Level Estimated
03:04PM 24.1997 -106.8986 137° Southeast  Level Estimated
03:05PM 24.1188 -106.8167 137° Southeast  Level Estimated
03:06PM 24.0379 -106.7349 137° Southeast  Level Estimated
03:07PM 23.9569 -106.6533 137° Southeast  Level Estimated
03:08PM 23.8759 -106.5717 137° Southeast  Level Estimated
03:09PM 23.7949 -106.4902 137° Southeast  Level Estimated
03:10PM 23.7138 -106.4088 137° Southeast  Level Estimated
03:11PM 23.6327 -106.3276 137° Southeast  Level Estimated
03:12PM 23.5515 -106.2464 137° Southeast  Level Estimated
03:13PM 23.4703 -106.1653 138° Southeast  Level Estimated
03:14PM 23.3890 -106.0844 138° Southeast  Level Estimated
03:15PM 23.3077 -106.0035 138° Southeast  Level Estimated
03:16PM 23.2264 -105.9227 138° Southeast  Level Estimated
03:17PM 23.1450 -105.8420 138° Southeast  Level Estimated
03:18PM 23.0636 -105.7615 138° Southeast  Level Estimated
03:19PM 22.9821 -105.6810 138° Southeast  Level Estimated
03:20PM 22.9006 -105.6006 138° Southeast  Level Estimated
03:21PM 22.8191 -105.5203 138° Southeast  Level Estimated
03:22PM 22.7375 -105.4401 138° Southeast  Level Estimated
03:23PM 22.6559 -105.3600 138° Southeast  Level Estimated
03:24PM 22.5742 -105.2800 138° Southeast  Level Estimated
03:25PM 22.4925 -105.2001 138° Southeast  Level Estimated
03:26PM 22.4108 -105.1203 138° Southeast  Level Estimated
03:27PM 22.3290 -105.0406 138° Southeast  Level Estimated
03:28PM 22.2472 -104.9610 138° Southeast  Level Estimated
03:29PM 22.1653 -104.8815 138° Southeast  Level Estimated
03:30PM 22.0834 -104.8020 138° Southeast  Level Estimated
03:31PM 22.0015 -104.7227 138° Southeast  Level Estimated
03:32PM 21.9195 -104.6434 138° Southeast  Level Estimated
03:33PM 21.8375 -104.5643 138° Southeast  Level Estimated
03:34PM 21.7555 -104.4852 138° Southeast  Level Estimated
03:35PM 21.6734 -104.4062 138° Southeast  Level Estimated
03:36PM 21.5912 -104.3273 138° Southeast  Level Estimated
03:37PM 21.5091 -104.2486 138° Southeast  Level Estimated
03:38PM 21.4269 -104.1698 138° Southeast  Level Estimated
03:39PM 21.3447 -104.0912 138° Southeast  Level Estimated
03:40PM 21.2624 -104.0127 138° Southeast  Level Estimated
03:41PM 21.1801 -103.9342 138° Southeast  Level Estimated
03:42PM 21.0977 -103.8559 138° Southeast  Level Estimated
03:43PM 21.0154 -103.7776 138° Southeast  Level Estimated
03:44PM 20.9329 -103.6994 138° Southeast  Level Estimated
03:45PM 20.8505 -103.6213 138° Southeast  Level Estimated
03:46PM 20.7680 -103.5433 139° Southeast  Level Estimated
03:47PM 20.6855 -103.4654 139° Southeast  Level Estimated
03:48PM 20.6029 -103.3875 139° Southeast  Level Estimated
03:49PM 20.5218 -103.3112 139° Southeast  Level Estimated
03:50PM 20.5218 -103.3112 90° East  Level Estimated
03:51PM 20.5218 -103.3112 90° East  Level Estimated
03:52PM 20.5218 -103.3112 90° East  Level Estimated
03:53PM 20.5218 -103.3112 90° East  Level Estimated
03:54PM 20.5218 -103.3112 90° East  Level Estimated
03:55PM 20.5218 -103.3112 90° East  Level Estimated
03:56PM 20.5218 -103.3112 90° East  Level Estimated
03:57PM 20.5218 -103.3112 90° East  Level Estimated
03:58PM 20.5218 -103.3112 90° East  Level Estimated
03:59PM 20.5218 -103.3112 90° East  Level Estimated
04:00PM 20.5218 -103.3112 90° East  Level Estimated
04:01PM 20.5218 -103.3112 90° East  Level Estimated